createdAt,value
2018-12-24T00:02:10.106Z,1.97
2018-12-24T00:04:41.124Z,1.70
2018-12-24T00:07:11.520Z,1.83
2018-12-24T00:09:42.649Z,1.90
2018-12-24T00:12:12.597Z,1.60
2018-12-24T00:14:42.249Z,1.70
2018-12-24T00:17:12.043Z,1.30
2018-12-24T00:19:44.026Z,1.30
2018-12-24T00:22:16.100Z,1.17
2018-12-24T00:24:52.796Z,1.30
2018-12-24T00:27:22.744Z,1.00
2018-12-24T00:29:52.977Z,1.30
2018-12-24T00:32:24.585Z,1.00
2018-12-24T00:34:55.056Z,1.10
2018-12-24T00:37:24.753Z,1.10
2018-12-24T00:39:55.030Z,1.00
2018-12-24T00:42:25.741Z,0.83
2018-12-24T00:44:58.886Z,0.80
2018-12-24T00:47:29.413Z,0.87
2018-12-24T00:50:00.780Z,0.90
2018-12-24T00:52:31.503Z,0.80
2018-12-24T00:55:01.405Z,1.00
2018-12-24T00:57:31.993Z,1.00
2018-12-24T01:00:01.660Z,0.80
2018-12-24T01:02:33.191Z,0.80
2018-12-24T01:05:02.855Z,1.00
2018-12-24T01:07:32.818Z,0.90
2018-12-24T01:10:08.281Z,0.87
2018-12-24T01:12:38.051Z,1.00
2018-12-24T01:15:07.707Z,0.97
2018-12-24T01:17:38.259Z,1.00
2018-12-24T01:20:10.677Z,0.83
2018-12-24T01:22:40.675Z,1.03
2018-12-24T01:25:14.156Z,0.90
2018-12-24T01:27:44.998Z,0.70
2018-12-24T01:30:14.913Z,0.80
2018-12-24T01:32:48.642Z,1.10
2018-12-24T01:35:19.079Z,0.77
2018-12-24T01:37:49.010Z,0.90
2018-12-24T01:40:20.207Z,1.00
2018-12-24T01:42:51.058Z,0.93
2018-12-24T01:45:21.758Z,0.90
2018-12-24T01:47:52.011Z,1.10
2018-12-24T01:50:22.536Z,1.10
2018-12-24T01:52:56.617Z,1.00
2018-12-24T01:55:26.841Z,1.10
2018-12-24T01:57:56.488Z,1.00
2018-12-24T02:00:26.720Z,1.40
2018-12-24T02:02:56.880Z,1.17
2018-12-24T02:05:27.811Z,1.60
2018-12-24T02:07:58.850Z,1.13
2018-12-24T02:10:31.313Z,1.20
2018-12-24T02:13:01.244Z,1.40
2018-12-24T02:15:34.233Z,1.00
2018-12-24T02:18:03.878Z,0.70
2018-12-24T02:20:39.601Z,0.90
2018-12-24T02:23:10.100Z,1.00
2018-12-24T02:25:40.232Z,0.60
2018-12-24T02:28:12.201Z,0.60
2018-12-24T02:30:41.876Z,0.43
2018-12-24T02:33:14.679Z,0.50
2018-12-24T02:35:46.592Z,0.47
2018-12-24T02:38:16.534Z,0.43
2018-12-24T02:40:48.593Z,0.30
2018-12-24T02:43:18.258Z,0.40
2018-12-24T02:45:48.511Z,0.37
2018-12-24T02:48:22.291Z,0.20
2018-12-24T02:50:55.269Z,0.30
2018-12-24T02:53:25.322Z,0.50
2018-12-24T02:55:55.268Z,0.47
2018-12-24T02:58:29.283Z,0.30
2018-12-24T03:00:59.202Z,0.37
2018-12-24T03:03:29.172Z,0.47
2018-12-24T03:06:00.633Z,0.20
2018-12-24T03:08:32.669Z,0.60
2018-12-24T03:11:06.075Z,0.20
2018-12-24T03:13:36.534Z,0.37
2018-12-24T03:16:07.530Z,0.33
2018-12-24T03:18:37.487Z,0.20
2018-12-24T03:21:11.177Z,0.20
2018-12-24T03:23:41.263Z,0.20
2018-12-24T03:26:11.472Z,0.20
2018-12-24T03:28:41.447Z,0.30
2018-12-24T03:31:13.059Z,0.30
2018-12-24T03:33:43.580Z,0.20
2018-12-24T03:36:15.138Z,0.30
2018-12-24T03:38:46.986Z,0.20
2018-12-24T03:41:17.731Z,0.10
2018-12-24T03:43:48.723Z,0.80
2018-12-24T03:46:18.661Z,0.27
2018-12-24T03:48:50.187Z,0.30
2018-12-24T03:51:22.380Z,0.30
2018-12-24T03:53:53.313Z,0.30
2018-12-24T03:56:23.530Z,0.30
2018-12-24T03:58:58.029Z,0.20
2018-12-24T04:01:27.963Z,0.40
2018-12-24T04:03:58.181Z,0.20
2018-12-24T04:06:30.734Z,0.23
2018-12-24T04:09:00.745Z,0.20
2018-12-24T04:11:34.708Z,0.20
2018-12-24T04:14:09.613Z,0.20
2018-12-24T04:16:39.811Z,0.30
2018-12-24T04:19:09.749Z,0.60
2018-12-24T04:21:41.381Z,0.10
2018-12-24T04:24:11.638Z,0.30
2018-12-24T04:26:47.239Z,0.17
2018-12-24T04:29:24.937Z,0.20
2018-12-24T04:31:59.328Z,0.40
2018-12-24T04:34:29.323Z,0.20
2018-12-24T04:37:00.580Z,0.20
2018-12-24T04:39:31.895Z,0.20
2018-12-24T04:42:05.691Z,0.27
2018-12-24T04:44:36.779Z,0.20
2018-12-24T04:47:07.549Z,0.60
2018-12-24T04:49:41.508Z,0.20
2018-12-24T04:52:16.358Z,0.10
2018-12-24T04:54:46.631Z,0.27
2018-12-24T04:57:19.787Z,0.20
2018-12-24T04:59:52.199Z,0.20
2018-12-24T05:02:22.428Z,0.30
2018-12-24T05:04:52.625Z,0.20
2018-12-24T05:07:22.692Z,0.30
2018-12-24T05:09:52.622Z,0.20
2018-12-24T05:12:24.410Z,0.10
2018-12-24T05:14:54.569Z,0.20
2018-12-24T05:17:26.876Z,0.10
2018-12-24T05:19:59.263Z,0.10
2018-12-24T05:22:33.246Z,0.33
2018-12-24T05:25:05.444Z,0.20
2018-12-24T05:27:40.270Z,0.27
2018-12-24T05:30:11.201Z,0.20
2018-12-24T05:32:44.929Z,0.20
2018-12-24T05:35:14.898Z,0.43
2018-12-24T05:37:45.159Z,0.20
2018-12-24T05:40:15.089Z,0.40
2018-12-24T05:42:44.783Z,0.20
2018-12-24T05:45:15.242Z,0.33
2018-12-24T05:47:45.783Z,0.37
2018-12-24T05:50:16.375Z,0.47
2018-12-24T05:52:48.728Z,0.40
2018-12-24T05:55:22.776Z,0.30
2018-12-24T05:57:59.008Z,0.57
2018-12-24T06:00:28.788Z,0.40
2018-12-24T06:03:00.740Z,0.60
2018-12-24T06:05:31.012Z,0.50
2018-12-24T06:08:00.663Z,0.60
2018-12-24T06:10:32.219Z,0.60
2018-12-24T06:13:03.676Z,0.67
2018-12-24T06:15:34.027Z,0.80
2018-12-24T06:18:09.364Z,0.53
2018-12-24T06:20:41.358Z,0.60
2018-12-24T06:23:11.656Z,0.60
2018-12-24T06:25:46.953Z,0.50
2018-12-24T06:28:17.893Z,0.50
2018-12-24T06:30:47.930Z,0.50
2018-12-24T06:33:18.651Z,0.50
2018-12-24T06:36:05.571Z,0.70
2018-12-24T06:38:35.645Z,0.60
2018-12-24T06:41:07.164Z,0.80
2018-12-24T06:43:40.652Z,0.60
2018-12-24T06:46:21.016Z,0.70
2018-12-24T06:48:52.129Z,0.70
2018-12-24T06:51:33.968Z,0.60
2018-12-24T06:54:11.254Z,0.60
2018-12-24T06:56:42.422Z,0.70
2018-12-24T06:59:12.156Z,0.70
2018-12-24T07:01:43.539Z,0.73
2018-12-24T07:04:20.422Z,0.80
2018-12-24T07:06:54.437Z,0.90
2018-12-24T07:09:34.822Z,0.80
2018-12-24T07:12:13.527Z,0.90
2018-12-24T07:14:53.459Z,1.20
2018-12-24T07:17:29.897Z,0.80
2018-12-24T07:20:07.761Z,0.80
2018-12-24T07:24:33.920Z,0.80
2018-12-24T07:27:05.428Z,0.97
2018-12-24T07:29:34.962Z,0.83
2018-12-24T07:32:07.367Z,0.90
2018-12-24T07:34:41.004Z,0.80
2018-12-24T07:37:41.694Z,0.93
2018-12-24T07:40:20.629Z,0.90
2018-12-24T07:43:11.370Z,0.90
2018-12-24T07:46:17.989Z,1.17
2018-12-24T07:48:50.023Z,1.00
2018-12-24T07:51:20.894Z,0.80
2018-12-24T07:53:54.725Z,1.07
2018-12-24T07:56:31.031Z,0.80
2018-12-24T07:59:01.513Z,1.83
2018-12-24T08:01:30.712Z,1.00
2018-12-24T08:04:17.399Z,0.80
2018-12-24T08:07:01.956Z,1.10
2018-12-24T08:09:59.293Z,0.90
2018-12-24T08:12:35.437Z,1.20
2018-12-24T08:15:15.231Z,0.93
2018-12-24T08:17:52.438Z,1.03
2018-12-24T08:20:44.547Z,1.37
2018-12-24T08:23:20.201Z,0.80
2018-12-24T08:26:06.689Z,0.80
2018-12-24T08:28:40.821Z,0.80
2018-12-24T08:31:14.591Z,0.90
2018-12-24T08:33:46.225Z,0.90
2018-12-24T08:36:15.525Z,0.93
2018-12-24T08:38:54.659Z,0.90
2018-12-24T08:41:28.550Z,0.90
2018-12-24T08:43:59.531Z,0.90
2018-12-24T08:46:29.072Z,1.10
2018-12-24T08:49:06.182Z,0.97
2018-12-24T08:51:36.115Z,1.00
2018-12-24T08:54:07.330Z,1.30
2018-12-24T08:56:36.562Z,1.07
2018-12-24T08:59:05.805Z,1.00
2018-12-24T09:04:31.563Z,1.03
2018-12-24T09:07:01.316Z,1.10
2018-12-24T09:09:37.707Z,1.10
2018-12-24T09:12:07.298Z,1.20
2018-12-24T09:14:50.027Z,1.40
2018-12-24T09:17:19.674Z,1.23
2018-12-24T09:19:55.024Z,1.00
2018-12-24T09:22:27.412Z,1.30
2018-12-24T09:25:03.801Z,1.50
2018-12-24T09:27:36.128Z,1.60
2018-12-24T09:30:12.999Z,1.27
2018-12-24T09:33:14.411Z,1.10
2018-12-24T09:35:47.230Z,1.30
2018-12-24T09:38:16.667Z,1.60
2018-12-24T09:40:45.934Z,1.40
2018-12-24T09:43:18.047Z,1.20
2018-12-24T09:45:47.675Z,1.50
2018-12-24T09:48:17.964Z,1.20
2018-12-24T09:50:47.221Z,1.13
2018-12-24T09:53:18.913Z,1.50
2018-12-24T09:55:49.585Z,1.50
2018-12-24T09:58:19.100Z,1.37
2018-12-24T10:00:48.386Z,2.80
2018-12-24T10:03:24.580Z,1.33
2018-12-24T10:05:56.587Z,1.03
2018-12-24T10:08:25.815Z,1.20
2018-12-24T10:10:55.086Z,1.20
2018-12-24T10:13:24.985Z,1.30
2018-12-24T10:15:56.760Z,1.07
2018-12-24T10:18:30.512Z,1.17
2018-12-24T10:21:00.801Z,1.13
2018-12-24T10:23:34.844Z,1.20
2018-12-24T10:26:06.761Z,1.10
2018-12-24T10:28:44.515Z,1.50
2018-12-24T10:31:16.932Z,1.60
2018-12-24T10:33:51.657Z,1.53
2018-12-24T10:36:31.917Z,1.60
2018-12-24T10:39:01.259Z,1.50
2018-12-24T10:41:30.490Z,1.73
2018-12-24T10:44:00.025Z,1.47
2018-12-24T10:46:30.075Z,1.70
2018-12-24T10:49:01.383Z,1.67
2018-12-24T10:51:30.882Z,1.40
2018-12-24T10:54:00.148Z,1.40
2018-12-24T10:56:29.372Z,1.10
2018-12-24T10:58:58.643Z,1.23
2018-12-24T11:01:27.858Z,1.20
2018-12-24T11:03:57.782Z,1.30
2018-12-24T11:06:27.011Z,1.10
2018-12-24T11:08:57.576Z,1.30
2018-12-24T11:11:27.425Z,1.40
2018-12-24T11:13:56.982Z,1.10
2018-12-24T11:16:26.728Z,1.20
2018-12-24T11:18:56.772Z,1.00
2018-12-24T11:21:27.567Z,1.07
2018-12-24T11:23:57.112Z,0.80
2018-12-24T11:26:26.455Z,0.83
2018-12-24T11:28:55.693Z,0.70
2018-12-24T11:31:24.971Z,0.90
2018-12-24T11:33:54.186Z,0.83
2018-12-24T11:36:23.435Z,1.03
2018-12-24T11:38:52.655Z,0.73
2018-12-24T11:41:21.904Z,0.90
2018-12-24T11:43:51.133Z,0.90
2018-12-24T11:46:20.379Z,1.00
2018-12-24T11:48:49.638Z,1.10
2018-12-24T11:51:18.900Z,1.07
2018-12-24T11:53:48.118Z,1.20
2018-12-24T11:56:17.893Z,1.40
2018-12-24T11:58:47.123Z,1.30
2018-12-24T12:01:16.378Z,1.30
2018-12-24T12:03:46.441Z,1.20
2018-12-24T12:06:19.621Z,1.40
2018-12-24T12:08:46.987Z,1.17
2018-12-24T12:11:16.273Z,1.20
2018-12-24T12:13:46.354Z,1.00
2018-12-24T12:16:15.937Z,1.07
2018-12-24T12:18:46.585Z,0.90
2018-12-24T12:21:16.953Z,1.03
2018-12-24T12:23:49.985Z,1.13
2018-12-24T12:26:19.252Z,1.10
2018-12-24T12:28:48.636Z,1.17
2018-12-24T12:31:18.175Z,1.20
2018-12-24T12:33:48.278Z,1.07
2018-12-24T12:36:17.519Z,1.20
2018-12-24T12:38:47.056Z,1.10
2018-12-24T12:41:16.302Z,1.20
2018-12-24T12:43:45.818Z,1.00
2018-12-24T12:46:15.090Z,0.97
2018-12-24T12:48:44.531Z,1.10
2018-12-24T12:51:15.924Z,1.20
2018-12-24T12:53:45.215Z,1.30
2018-12-24T12:56:15.481Z,1.00
2018-12-24T12:58:44.753Z,0.90
2018-12-24T13:01:13.970Z,1.00
2018-12-24T13:03:43.242Z,0.90
2018-12-24T13:06:12.465Z,1.10
2018-12-24T13:08:41.714Z,1.23
2018-12-24T13:11:10.941Z,1.23
2018-12-24T13:13:40.190Z,1.43
2018-12-24T13:16:10.166Z,1.50
2018-12-24T13:18:39.431Z,1.70
2018-12-24T13:21:08.658Z,1.73
2018-12-24T13:23:37.922Z,1.40
2018-12-24T13:26:07.206Z,1.50
2018-12-24T13:28:37.130Z,1.40
2018-12-24T13:31:07.208Z,1.60
2018-12-24T13:33:36.472Z,1.60
2018-12-24T13:36:05.702Z,1.50
2018-12-24T13:38:35.060Z,1.40
2018-12-24T13:41:04.278Z,1.50
2018-12-24T13:43:35.314Z,1.33
2018-12-24T13:46:08.286Z,1.30
2018-12-24T13:48:36.494Z,1.60
2018-12-24T13:51:09.977Z,1.50
2018-12-24T13:53:41.949Z,1.40
2018-12-24T13:56:12.795Z,1.30
2018-12-24T13:58:42.268Z,1.43
2018-12-24T14:01:16.940Z,1.40
2018-12-24T14:03:48.066Z,1.10
2018-12-24T14:06:17.787Z,1.43
2018-12-24T14:08:47.318Z,1.47
2018-12-24T14:11:20.932Z,1.23
2018-12-24T14:13:50.495Z,1.27
2018-12-24T14:16:27.510Z,1.23
2018-12-24T14:18:59.821Z,1.40
2018-12-24T14:21:30.493Z,1.30
2018-12-24T14:24:05.417Z,1.30
2018-12-24T14:26:38.187Z,1.37
2018-12-24T14:29:13.570Z,1.30
2018-12-24T14:31:46.678Z,1.50
2018-12-24T14:34:21.062Z,1.80
2018-12-24T14:36:50.950Z,2.13
2018-12-24T14:39:28.883Z,2.10
2018-12-24T14:41:59.534Z,2.30
2018-12-24T14:44:29.992Z,2.20
2018-12-24T14:47:02.082Z,2.13
2018-12-24T14:49:31.983Z,2.27
2018-12-24T14:52:06.124Z,2.30
2018-12-24T14:54:38.954Z,2.50
2018-12-24T14:57:10.618Z,2.10
2018-12-24T14:59:44.307Z,2.30
2018-12-24T15:02:14.822Z,2.83
2018-12-24T15:04:46.951Z,2.43
2018-12-24T15:07:18.392Z,2.87
2018-12-24T15:09:51.445Z,3.10
2018-12-24T15:12:21.714Z,2.73
2018-12-24T15:14:55.102Z,3.00
2018-12-24T15:17:25.647Z,2.57
2018-12-24T15:19:54.896Z,2.73
2018-12-24T15:22:24.474Z,2.70
2018-12-24T15:24:53.764Z,2.33
2018-12-24T15:27:23.062Z,2.43
2018-12-24T15:29:52.341Z,2.73
2018-12-24T15:32:21.554Z,2.50
2018-12-24T15:34:50.827Z,2.53
2018-12-24T15:37:20.075Z,2.77
2018-12-24T15:39:49.337Z,2.83
2018-12-24T15:42:18.566Z,2.83
2018-12-24T15:44:48.870Z,2.40
2018-12-24T15:47:18.400Z,2.67
2018-12-24T15:49:47.656Z,2.70
2018-12-24T15:52:18.246Z,2.57
2018-12-24T15:54:48.408Z,2.77
2018-12-24T15:57:17.654Z,2.53
2018-12-24T15:59:46.911Z,2.60
2018-12-24T16:02:16.729Z,2.70
2018-12-24T16:04:46.482Z,3.47
2018-12-24T16:07:17.082Z,2.50
2018-12-24T16:09:49.985Z,2.43
2018-12-24T16:12:20.862Z,2.70
2018-12-24T16:14:50.540Z,2.50
2018-12-24T16:17:20.044Z,2.67
2018-12-24T16:19:49.888Z,2.60
2018-12-24T16:22:19.771Z,2.47
2018-12-24T16:24:54.465Z,2.77
2018-12-24T16:27:26.022Z,2.73
2018-12-24T16:29:57.175Z,2.87
2018-12-24T16:32:27.233Z,2.73
2018-12-24T16:34:58.088Z,2.50
2018-12-24T16:37:29.275Z,3.00
2018-12-24T16:40:02.270Z,2.60
2018-12-24T16:42:32.344Z,2.53
2018-12-24T16:45:03.658Z,2.67
2018-12-24T16:47:34.024Z,3.20
2018-12-24T16:50:04.076Z,3.27
2018-12-24T16:52:33.592Z,2.80
2018-12-24T16:55:06.205Z,3.00
2018-12-24T16:57:37.560Z,2.83
2018-12-24T17:00:07.335Z,3.37
2018-12-24T17:02:36.621Z,3.47
2018-12-24T17:05:08.428Z,3.60
2018-12-24T17:07:37.766Z,3.53
2018-12-24T17:10:08.503Z,3.50
2018-12-24T17:12:38.257Z,3.30
2018-12-24T17:15:08.504Z,3.10
2018-12-24T17:17:37.755Z,3.37
2018-12-24T17:20:08.536Z,3.63
2018-12-24T17:22:42.193Z,3.97
2018-12-24T17:25:11.708Z,4.13
2018-12-24T17:27:42.064Z,4.27
2018-12-24T17:30:11.658Z,4.40
2018-12-24T17:32:41.035Z,4.00
2018-12-24T17:35:12.542Z,3.83
2018-12-24T17:37:43.182Z,3.70
2018-12-24T17:40:13.285Z,3.83
2018-12-24T17:42:48.815Z,4.10
2018-12-24T17:45:19.496Z,3.50
2018-12-24T17:47:49.142Z,3.43
2018-12-24T17:50:20.742Z,3.73
2018-12-24T17:52:51.189Z,4.40
2018-12-24T17:55:20.689Z,4.07
2018-12-24T17:57:53.302Z,4.13
2018-12-24T18:00:24.571Z,4.30
2018-12-24T18:02:54.339Z,4.60
2018-12-24T18:05:27.314Z,4.63
2018-12-24T18:07:56.864Z,5.43
2018-12-24T18:10:28.087Z,4.97
2018-12-24T18:12:58.447Z,6.57
2018-12-24T18:15:28.248Z,5.80
2018-12-24T18:17:58.934Z,5.87
2018-12-24T18:20:30.496Z,5.10
2018-12-24T18:23:00.056Z,4.67
2018-12-24T18:25:32.709Z,4.90
2018-12-24T18:28:02.741Z,4.93
2018-12-24T18:30:32.544Z,4.80
2018-12-24T18:33:02.282Z,5.00
2018-12-24T18:35:32.015Z,5.10
2018-12-24T18:38:02.963Z,5.83
2018-12-24T18:40:32.494Z,5.90
2018-12-24T18:43:03.550Z,5.70
2018-12-24T18:45:39.264Z,26.90
2018-12-24T18:48:10.716Z,14.83
2018-12-24T18:50:42.615Z,10.33
2018-12-24T18:53:11.844Z,9.50
2018-12-24T18:55:47.852Z,8.40
2018-12-24T18:58:17.448Z,9.77
2018-12-24T19:00:48.679Z,17.97
2018-12-24T19:03:18.382Z,8.33
2018-12-24T19:05:50.357Z,5.40
2018-12-24T19:08:20.967Z,6.57
2018-12-24T19:10:58.078Z,6.60
2018-12-24T19:13:42.413Z,5.57
2018-12-24T19:16:14.944Z,5.70
2018-12-24T19:18:48.403Z,28.20
2018-12-24T19:21:17.713Z,9.20
2018-12-24T19:23:46.973Z,5.77
2018-12-24T19:26:19.589Z,7.07
2018-12-24T19:28:48.837Z,9.70
2018-12-24T19:31:23.674Z,6.60
2018-12-24T19:34:25.168Z,12.40
2018-12-24T19:36:54.440Z,14.30
2018-12-24T19:39:24.993Z,12.90
2018-12-24T19:41:54.671Z,10.33
2018-12-24T19:44:25.538Z,8.30
2018-12-24T19:46:55.093Z,7.70
2018-12-24T19:49:45.487Z,6.47
2018-12-24T19:52:15.615Z,5.90
2018-12-24T19:54:45.192Z,7.10
2018-12-24T19:57:15.557Z,9.13
2018-12-24T19:59:45.363Z,9.43
2018-12-24T20:02:20.369Z,9.17
2018-12-24T20:04:50.185Z,8.80
2018-12-24T20:07:20.073Z,5.30
2018-12-24T20:09:50.163Z,4.17
2018-12-24T20:12:23.790Z,3.90
2018-12-24T20:14:56.150Z,4.50
2018-12-24T20:17:26.946Z,4.50
2018-12-24T20:19:56.737Z,4.37
2018-12-24T20:22:27.188Z,4.30
2018-12-24T20:24:57.580Z,3.97
2018-12-24T20:27:27.122Z,3.73
2018-12-24T20:30:00.707Z,3.97
2018-12-24T20:32:30.264Z,4.10
2018-12-24T20:35:00.554Z,4.23
2018-12-24T20:37:33.902Z,4.73
2018-12-24T20:40:07.039Z,4.37
2018-12-24T20:42:38.177Z,4.97
2018-12-24T20:45:08.504Z,5.13
2018-12-24T20:47:40.933Z,4.77
2018-12-24T20:50:18.314Z,4.13
2018-12-24T20:52:53.217Z,3.93
2018-12-24T20:55:52.587Z,4.20
2018-12-24T20:58:30.799Z,4.20
2018-12-24T21:01:01.100Z,4.50
2018-12-24T21:03:32.243Z,5.10
2018-12-24T21:06:32.629Z,5.40
2018-12-24T21:12:03.875Z,5.37
2018-12-24T21:14:33.455Z,4.17
2018-12-24T21:17:08.980Z,3.87
2018-12-24T21:19:39.011Z,4.60
2018-12-24T21:22:11.169Z,5.47
2018-12-24T21:24:42.351Z,4.50
2018-12-24T21:27:14.997Z,4.37
2018-12-24T21:29:49.443Z,5.93
2018-12-24T21:32:19.200Z,6.77
2018-12-24T21:34:50.032Z,5.10
2018-12-24T21:37:22.343Z,4.37
2018-12-24T21:39:51.703Z,4.77
2018-12-24T21:42:20.947Z,4.10
2018-12-24T21:44:50.194Z,4.87
2018-12-24T21:47:20.808Z,4.13
2018-12-24T21:49:50.061Z,3.73
2018-12-24T21:52:23.213Z,3.77
2018-12-24T21:54:57.434Z,4.10
2018-12-24T21:57:37.899Z,8.13
2018-12-24T22:00:20.788Z,6.33
2018-12-24T22:02:54.540Z,4.97
2018-12-24T22:05:29.561Z,4.77
2018-12-24T22:08:05.289Z,7.83
2018-12-24T22:10:40.146Z,11.97
2018-12-24T22:13:13.046Z,5.17
2018-12-24T22:15:45.729Z,4.90
2018-12-24T22:18:23.397Z,3.80
2018-12-24T22:20:54.954Z,3.97
2018-12-24T22:23:37.270Z,3.67
2018-12-24T22:26:10.301Z,4.40
2018-12-24T22:29:03.217Z,4.53
2018-12-24T22:31:37.462Z,4.50
2018-12-24T22:34:14.983Z,4.57
2018-12-24T22:36:48.536Z,4.80
2018-12-24T22:39:29.183Z,4.27
2018-12-24T22:42:07.906Z,4.47
2018-12-24T22:44:45.241Z,4.77
2018-12-24T22:47:17.983Z,4.60
2018-12-24T22:49:52.854Z,3.73
2018-12-24T22:52:26.719Z,4.40
2018-12-24T22:55:03.013Z,4.53
2018-12-24T22:57:37.388Z,4.13
2018-12-24T23:00:11.768Z,6.57
2018-12-24T23:02:45.942Z,7.30
2018-12-24T23:05:18.497Z,8.93
2018-12-24T23:07:52.990Z,5.83
2018-12-24T23:10:29.895Z,6.40
2018-12-24T23:13:06.960Z,5.50
2018-12-24T23:15:38.985Z,4.70
2018-12-24T23:18:15.400Z,5.00
2018-12-24T23:20:50.185Z,4.50
2018-12-24T23:23:23.147Z,4.60
2018-12-24T23:25:57.061Z,5.50
2018-12-24T23:31:32.070Z,4.90
2018-12-24T23:34:05.277Z,4.23
2018-12-24T23:36:37.235Z,3.83
2018-12-24T23:39:14.227Z,3.87
2018-12-24T23:41:46.903Z,4.03
2018-12-24T23:44:19.467Z,3.50
2018-12-24T23:46:57.444Z,3.77
2018-12-24T23:49:32.893Z,3.73
2018-12-24T23:52:05.305Z,3.67
2018-12-24T23:54:40.996Z,3.67
2018-12-24T23:57:17.269Z,3.67
2018-12-24T23:59:47.588Z,4.10
